Hovedside
METAR-TAF:

METAR-TAF

Lufthavner :

Ilorin, Nigeria

breddegrad: 08-29N, lengdegrad: 004-35E, høyde over havet: 308 m

METAR: fraværende

Tid: 14:04 (13:04 UTC)

Varsel

Denne rapporten ble laget for 9 timer og 34 minutter siden, klokken 03:30 UTC
Varsel gyldig fra 21. klokken 06 UTC til 22. klokken 12 UTC
Vind kt fra Nord
Sikt: 4000 m
Spredte skyer i en høyde av 800 ft
dis
Blir
fra 21. klokken 08 UTC til 21. klokken 10 UTC
Vind 8 kt fra Vest-sørvest
Sikt 10 km eller mer
Brutte skyer i en høyde av 1200 ft

TAF: DNIL 210330Z 2106/2212 00000KT 4000 BR SCT008 BECMG 2108/2110 24008KT 9999 NSW BKN012

Værobservasjoner og værvarsel for over 4000 flyplasser (METAR- og TAF-rapporter).

Tilgjengelige stasjoner er representert av de røde og gule prikkene på kartet.

Hold musepekeren over prikken for å se navnet på stasjonen.

Klikk så for å se værobservasjoner og -varsler.

For å forandre kartet kan du klikke på den grønne knappen med svart kryss for å zoome inn, på den grønne knappen med strek for å zoome ut, eller på de grønne pilene for å se tilstøtende kart.


METAR-TAF: